Robert G. Stone, Jr. — WDD4596 — position and weather

sailwx.info

Track history (hours):
 
Tides and Currents Weather Stations Pressure Air Temp Water Temp Dewpoint Dewpoint Depression Visibility Wind Speed Wind Dir Waves Ship Positions

Robert G. Stone, Jr.

Owner: Kirby Inland Marine, LP, Houston, TX. More information available from US FCC via Universal Licensing System and Coast Guard Vessel Documentation Center.

Last reported at 2016-Aug-26 02:25 UTC. Time now 2016-Sep-01 05:38 UTC.
Position N 29°46' W 091°37'.

Length 27 m; draft 3 m.

Type: . MMSI: 367146780.

Date/timePositionNaut miles runAvg speedWind from/ knotsBaromVisibWave heightAir tempDewpointWater temp
2016-Aug-26 02:25N 29°46' W 091°37'12 4.3
2016-Aug-25 23:33N 29°50' W 091°50'6 6.0
2016-Aug-25 22:33N 29°51' W 091°57'5 4.6
2016-Aug-25 21:34N 29°49' W 092°02'6 5.8
2016-Aug-25 20:33N 29°47' W 092°08'4 4.4
2016-Aug-25 19:33N 29°47' W 092°13'3 3.2
2016-Aug-25 18:34N 29°49' W 092°16'6 5.8
2016-Aug-25 17:33N 29°52' W 092°22'19 5.9
2016-Aug-25 14:22N 29°57' W 092°43'6 6.8
2016-Aug-25 13:32N 29°58' W 092°49'6 5.5
2016-Aug-25 12:22N 29°56' W 092°56'4 5.1
2016-Aug-25 11:32N 29°56' W 093°01'5 4.7
2016-Aug-25 10:34N 29°56' W 093°06'5 4.6
2016-Aug-25 09:32N 29°58' W 093°11'4 4.1
2016-Aug-25 08:33N 30°01' W 093°14'4 4.0
2016-Aug-25 07:34N 30°05' W 093°17'2 2.0
2016-Aug-25 06:33N 30°06' W 093°18'4 2.2
2016-Aug-25 04:34N 30°04' W 093°22'4 4.4
2016-Aug-25 03:34N 30°04' W 093°27'5 5.2
2016-Aug-25 02:34N 30°04' W 093°33'5 5.2
2016-Aug-25 01:34N 30°04' W 093°39'5 5.1
2016-Aug-25 00:34N 30°01' W 093°45'6 6.1
2016-Aug-24 23:31N 29°58' W 093°51'6 6.0
2016-Aug-24 22:34N 29°53' W 093°55'  
2016-Aug-21 10:23N 29°41' W 094°11'22 7.9
2016-Aug-21 07:33N 29°56' W 093°52'8 7.6
2016-Aug-21 06:33N 30°01' W 093°45'6 6.3
2016-Aug-21 05:34N 30°04' W 093°38'7 7.3
2016-Aug-21 04:34N 30°04' W 093°30'7 6.6
2016-Aug-21 03:34N 30°04' W 093°22'4 4.4
2016-Aug-21 02:34N 30°06' W 093°18'0 0.3
2016-Aug-21 01:33N 30°06' W 093°18'4 4.1
2016-Aug-21 00:34N 30°02' W 093°16'7 7.4
2016-Aug-20 23:34N 29°57' W 093°10'8 7.8
2016-Aug-20 22:34N 29°56' W 093°01'7 6.9
2016-Aug-20 21:33N 29°57' W 092°53'26 6.3
2016-Aug-20 17:30N 29°53' W 092°24'5 5.2
2016-Aug-20 16:34N 29°50' W 092°19'6 6.2
2016-Aug-20 15:33N 29°47' W 092°13'4 4.0
2016-Aug-20 14:34N 29°47' W 092°08'6 6.3
2016-Aug-20 13:33N 29°49' W 092°02'7 6.7
2016-Aug-20 12:33N 29°51' W 091°54'51 5.6
2016-Aug-20 03:27N 29°35' W 090°58'6 6.3
2016-Aug-20 02:32N 29°32' W 090°52'6 6.2
2016-Aug-20 01:33N 29°33' W 090°45'4 4.4
2016-Aug-20 00:33N 29°36' W 090°43'5 5.0
2016-Aug-19 23:33N 29°35' W 090°37'6 6.0
2016-Aug-19 22:33N 29°34' W 090°30'149 3.2
2016-Aug-17 23:33N 31°59' W 091°07'9 9.2
2016-Aug-17 22:33N 32°08' W 091°05'10 9.8
2016-Aug-17 21:33N 32°16' W 090°58'7 6.7
2016-Aug-17 20:33N 32°22' W 091°00'1010.1
2016-Aug-17 19:32N 32°31' W 091°06'  
Track history (hours):
 
Tides and Currents Weather Stations Pressure Air Temp Water Temp Dewpoint Dewpoint Depression Visibility Wind Speed Wind Dir Waves Ship Positions

Robert G. Stone, Jr.

Owner: Kirby Inland Marine, LP, Houston, TX. More information available from US FCC via Universal Licensing System and Coast Guard Vessel Documentation Center.

Last reported at 2016-Aug-26 02:25 UTC. Time now 2016-Sep-01 05:38 UTC.
Position N 29°46' W 091°37'.

Length 27 m; draft 3 m.

Type: . MMSI: 367146780.

Date/timePositionNaut miles runAvg speedWind from/ knotsBaromVisibWave heightAir tempDewpointWater temp
2016-Aug-26 02:25N 29°46' W 091°37'12 4.3
2016-Aug-25 23:33N 29°50' W 091°50'6 6.0
2016-Aug-25 22:33N 29°51' W 091°57'5 4.6
2016-Aug-25 21:34N 29°49' W 092°02'6 5.8
2016-Aug-25 20:33N 29°47' W 092°08'4 4.4
2016-Aug-25 19:33N 29°47' W 092°13'3 3.2
2016-Aug-25 18:34N 29°49' W 092°16'6 5.8
2016-Aug-25 17:33N 29°52' W 092°22'19 5.9
2016-Aug-25 14:22N 29°57' W 092°43'6 6.8
2016-Aug-25 13:32N 29°58' W 092°49'6 5.5
2016-Aug-25 12:22N 29°56' W 092°56'4 5.1
2016-Aug-25 11:32N 29°56' W 093°01'5 4.7
2016-Aug-25 10:34N 29°56' W 093°06'5 4.6
2016-Aug-25 09:32N 29°58' W 093°11'4 4.1
2016-Aug-25 08:33N 30°01' W 093°14'4 4.0
2016-Aug-25 07:34N 30°05' W 093°17'2 2.0
2016-Aug-25 06:33N 30°06' W 093°18'4 2.2
2016-Aug-25 04:34N 30°04' W 093°22'4 4.4
2016-Aug-25 03:34N 30°04' W 093°27'5 5.2
2016-Aug-25 02:34N 30°04' W 093°33'5 5.2
2016-Aug-25 01:34N 30°04' W 093°39'5 5.1
2016-Aug-25 00:34N 30°01' W 093°45'6 6.1
2016-Aug-24 23:31N 29°58' W 093°51'6 6.0
2016-Aug-24 22:34N 29°53' W 093°55'  
2016-Aug-21 10:23N 29°41' W 094°11'22 7.9
2016-Aug-21 07:33N 29°56' W 093°52'8 7.6
2016-Aug-21 06:33N 30°01' W 093°45'6 6.3
2016-Aug-21 05:34N 30°04' W 093°38'7 7.3
2016-Aug-21 04:34N 30°04' W 093°30'7 6.6
2016-Aug-21 03:34N 30°04' W 093°22'4 4.4
2016-Aug-21 02:34N 30°06' W 093°18'0 0.3
2016-Aug-21 01:33N 30°06' W 093°18'4 4.1
2016-Aug-21 00:34N 30°02' W 093°16'7 7.4
2016-Aug-20 23:34N 29°57' W 093°10'8 7.8
2016-Aug-20 22:34N 29°56' W 093°01'7 6.9
2016-Aug-20 21:33N 29°57' W 092°53'26 6.3
2016-Aug-20 17:30N 29°53' W 092°24'5 5.2
2016-Aug-20 16:34N 29°50' W 092°19'6 6.2
2016-Aug-20 15:33N 29°47' W 092°13'4 4.0
2016-Aug-20 14:34N 29°47' W 092°08'6 6.3
2016-Aug-20 13:33N 29°49' W 092°02'7 6.7
2016-Aug-20 12:33N 29°51' W 091°54'51 5.6
2016-Aug-20 03:27N 29°35' W 090°58'6 6.3
2016-Aug-20 02:32N 29°32' W 090°52'6 6.2
2016-Aug-20 01:33N 29°33' W 090°45'4 4.4
2016-Aug-20 00:33N 29°36' W 090°43'5 5.0
2016-Aug-19 23:33N 29°35' W 090°37'6 6.0
2016-Aug-19 22:33N 29°34' W 090°30'149 3.2
2016-Aug-17 23:33N 31°59' W 091°07'9 9.2
2016-Aug-17 22:33N 32°08' W 091°05'10 9.8
2016-Aug-17 21:33N 32°16' W 090°58'7 6.7
2016-Aug-17 20:33N 32°22' W 091°00'1010.1
2016-Aug-17 19:32N 32°31' W 091°06'  

Dump ship's entire track history